Time;durP1;ratioP1;P1;durP2;ratioP2;P2;SDS_P1;SDS_P2;PMS_P1;PMS_P2;Temp;Humidity;BMP_temperature;BMP_pressure;BME280_temperature;BME280_humidity;BME280_pressure;Samples;Min_cycle;Max_cycle;Signal;HPM_P1;HPM_P2
2023/05/01 00:04:56;;;;;;;6.00;3.73;;;;;12.30;101103.00;;;;9854265;29;20287;-82
2023/05/01 00:09:58;;;;;;;5.40;3.50;;;;;12.20;101094.00;;;;9853680;29;20694;-82
2023/05/01 00:15:00;;;;;;;3.90;2.97;;;;;12.20;101088.00;;;;9838590;29;20262;-82
2023/05/01 00:20:01;;;;;;;6.63;3.90;;;;;12.20;101081.00;;;;9834441;29;20223;-81
2023/05/01 00:25:03;;;;;;;3.13;2.83;;;;;12.20;101082.00;;;;9834807;29;20230;-81
2023/05/01 00:30:06;;;;;;;3.73;3.33;;;;;12.20;101082.00;;;;9849814;29;20223;-81
2023/05/01 00:35:08;;;;;;;6.70;3.53;;;;;12.20;101074.00;;;;9864338;29;20802;-81
2023/05/01 00:40:09;;;;;;;6.93;3.20;;;;;12.10;101071.00;;;;9867651;29;21552;-82
2023/05/01 00:45:11;;;;;;;4.07;3.67;;;;;12.10;101065.00;;;;9847548;29;20283;-81
2023/05/01 00:50:13;;;;;;;4.87;3.53;;;;;12.10;101054.00;;;;9846641;29;20277;-80
2023/05/01 00:55:15;;;;;;;4.50;3.30;;;;;12.10;101038.00;;;;9857860;29;20294;-80
2023/05/01 01:00:18;;;;;;;9.23;5.67;;;;;12.10;101036.00;;;;9861184;29;20222;-79
2023/05/01 01:05:22;;;;;;;8.33;5.23;;;;;12.20;101025.00;;;;9844531;29;21478;-80
2023/05/01 01:10:34;;;;;;;5.43;3.63;;;;;12.10;101025.00;;;;9840759;29;20223;-81
2023/05/01 01:15:44;;;;;;;5.33;3.73;;;;;12.10;101017.00;;;;9824345;29;20230;-77
2023/05/01 01:21:00;;;;;;;3.50;3.20;;;;;12.10;101012.00;;;;9794668;29;20246;-77
2023/05/01 01:26:03;;;;;;;4.03;3.60;;;;;12.00;101009.00;;;;9806690;29;21155;-77
2023/05/01 01:31:20;;;;;;;6.60;3.70;;;;;12.00;101016.00;;;;9842083;29;20314;-77
2023/05/01 01:36:47;;;;;;;4.47;3.40;;;;;11.90;101003.00;;;;9821825;29;20242;-76
2023/05/01 01:41:51;;;;;;;4.13;3.73;;;;;11.90;100998.00;;;;9816305;29;20829;-77
2023/05/01 01:46:53;;;;;;;4.23;3.10;;;;;11.90;100986.00;;;;9843563;29;20234;-77
2023/05/01 01:51:57;;;;;;;5.57;3.70;;;;;11.90;100987.00;;;;9830224;29;21590;-76
2023/05/01 01:57:01;;;;;;;4.30;3.67;;;;;11.90;100980.00;;;;9845475;29;20696;-76
2023/05/01 02:02:03;;;;;;;6.33;3.87;;;;;11.90;100978.00;;;;9813233;29;20219;-77
2023/05/01 02:07:06;;;;;;;5.73;3.83;;;;;11.80;100978.00;;;;9831376;29;20223;-77
2023/05/01 02:12:08;;;;;;;6.13;4.13;;;;;11.80;100979.00;;;;9832968;29;20265;-77
2023/05/01 02:17:12;;;;;;;4.17;3.33;;;;;11.70;100973.00;;;;9829900;29;20254;-76
2023/05/01 02:22:17;;;;;;;8.37;4.30;;;;;11.70;100965.00;;;;9853774;29;20234;-81
2023/05/01 02:27:33;;;;;;;5.03;3.70;;;;;11.70;100968.00;;;;9856607;29;20219;-81
2023/05/01 02:32:35;;;;;;;4.10;3.70;;;;;11.60;100954.00;;;;9844564;29;20215;-81
2023/05/01 02:37:37;;;;;;;5.80;4.13;;;;;11.60;100961.00;;;;9836789;29;20741;-81
2023/05/01 02:42:41;;;;;;;6.13;3.87;;;;;11.60;100949.00;;;;9819783;29;20234;-81
2023/05/01 02:47:44;;;;;;;4.90;3.50;;;;;11.60;100952.00;;;;9835086;29;21817;-81
2023/05/01 02:52:46;;;;;;;4.43;3.93;;;;;11.50;100944.00;;;;9832049;29;20736;-81
2023/05/01 02:58:18;;;;;;;7.00;4.10;;;;;11.50;100935.00;;;;9837541;29;20257;-81
2023/05/01 03:03:20;;;;;;;8.40;4.47;;;;;11.50;100933.00;;;;9823156;29;21064;-81
2023/05/01 03:08:21;;;;;;;7.20;4.77;;;;;11.50;100932.00;;;;9855736;29;20230;-81
2023/05/01 03:13:23;;;;;;;5.60;4.57;;;;;11.50;100927.00;;;;9829471;29;20238;-81
2023/05/01 03:18:25;;;;;;;6.17;4.90;;;;;11.50;100924.00;;;;9840056;29;20581;-81
2023/05/01 03:23:27;;;;;;;6.90;4.50;;;;;11.40;100916.00;;;;9837522;29;21740;-81
2023/05/01 03:28:29;;;;;;;5.20;4.70;;;;;11.40;100920.00;;;;9824429;29;20613;-81
2023/05/01 03:33:31;;;;;;;4.87;4.43;;;;;11.40;100915.00;;;;9840948;29;20215;-81
2023/05/01 03:38:32;;;;;;;7.07;5.33;;;;;11.40;100910.00;;;;9840248;29;20270;-82
2023/05/01 03:43:45;;;;;;;8.23;4.87;;;;;11.30;100914.00;;;;9831227;29;20230;-78
2023/05/01 03:49:01;;;;;;;7.40;4.70;;;;;11.30;100915.00;;;;9825602;29;20214;-75
2023/05/01 03:54:07;;;;;;;5.20;4.70;;;;;11.20;100912.00;;;;9838951;29;20245;-77
2023/05/01 03:59:24;;;;;;;5.13;4.60;;;;;11.20;100911.00;;;;9810981;29;20430;-76
2023/05/01 04:04:25;;;;;;;6.33;4.57;;;;;11.20;100908.00;;;;9808538;29;20513;-77
2023/05/01 04:09:30;;;;;;;6.80;4.57;;;;;11.20;100904.00;;;;9838110;29;20227;-77
2023/05/01 04:14:32;;;;;;;6.43;4.80;;;;;11.20;100905.00;;;;9823950;29;20255;-76
2023/05/01 04:19:34;;;;;;;6.80;4.53;;;;;11.10;100908.00;;;;9838510;29;20291;-77
2023/05/01 04:24:35;;;;;;;5.80;5.13;;;;;11.20;100901.00;;;;9809022;29;20879;-76
2023/05/01 04:29:36;;;;;;;4.93;4.43;;;;;11.20;100913.00;;;;9840679;29;20241;-76
2023/05/01 04:34:38;;;;;;;5.50;4.90;;;;;11.20;100905.00;;;;9806919;29;20262;-77
2023/05/01 04:39:40;;;;;;;6.23;4.63;;;;;11.20;100901.00;;;;9810797;29;20223;-77
2023/05/01 04:44:41;;;;;;;5.13;4.73;;;;;11.30;100909.00;;;;9849492;29;20225;-76
2023/05/01 04:49:43;;;;;;;5.33;4.70;;;;;11.30;100909.00;;;;9823443;29;20274;-83
2023/05/01 04:54:44;;;;;;;7.57;4.93;;;;;11.30;100909.00;;;;9835640;29;20238;-79
2023/05/01 04:59:47;;;;;;;7.73;5.00;;;;;11.30;100918.00;;;;9834691;29;20519;-80
2023/05/01 05:04:48;;;;;;;7.37;4.80;;;;;11.40;100915.00;;;;9823934;29;20238;-80
2023/05/01 05:09:54;;;;;;;6.70;4.93;;;;;11.50;100926.00;;;;9847230;29;20223;-80
2023/05/01 05:14:57;;;;;;;7.10;5.43;;;;;11.60;100924.00;;;;9851889;29;21807;-81
2023/05/01 05:19:59;;;;;;;6.37;4.70;;;;;11.70;100922.00;;;;9847467;29;20215;-81
2023/05/01 05:25:03;;;;;;;9.70;5.30;;;;;11.90;100935.00;;;;9850049;29;20254;-81
2023/05/01 05:30:06;;;;;;;6.43;5.30;;;;;12.00;100937.00;;;;9846411;29;20226;-81
2023/05/01 05:35:08;;;;;;;6.13;4.80;;;;;12.20;100943.00;;;;9838673;29;20960;-81
2023/05/01 05:40:10;;;;;;;5.90;4.80;;;;;12.40;100937.00;;;;9831160;29;20740;-81
2023/05/01 05:45:22;;;;;;;6.33;4.70;;;;;12.50;100936.00;;;;9851390;29;20804;-80
2023/05/01 05:50:23;;;;;;;8.40;5.83;;;;;12.70;100935.00;;;;9832989;29;22059;-82
2023/05/01 05:55:25;;;;;;;8.70;5.43;;;;;12.80;100940.00;;;;9817297;29;20242;-81
2023/05/01 06:00:35;;;;;;;6.87;5.00;;;;;13.00;100926.00;;;;9842327;29;21385;-77
2023/05/01 06:05:39;;;;;;;8.13;5.63;;;;;13.10;100931.00;;;;9807706;29;20701;-78
2023/05/01 06:10:42;;;;;;;5.47;4.30;;;;;13.20;100929.00;;;;9824969;29;20219;-78
2023/05/01 06:15:44;;;;;;;6.40;5.00;;;;;13.20;100927.00;;;;9822179;29;20242;-77
2023/05/01 06:20:46;;;;;;;5.77;5.20;;;;;13.40;100924.00;;;;9799877;29;20230;-77
2023/05/01 06:25:48;;;;;;;7.33;4.90;;;;;13.60;100944.00;;;;9806941;29;20581;-77
2023/05/01 06:30:50;;;;;;;5.70;5.10;;;;;13.90;100930.00;;;;9828657;29;20233;-77
2023/05/01 06:35:53;;;;;;;5.30;4.80;;;;;14.20;100937.00;;;;9841526;29;20245;-77
2023/05/01 06:40:55;;;;;;;7.10;5.77;;;;;14.30;100939.00;;;;9843207;29;20306;-77
2023/05/01 06:45:56;;;;;;;9.63;5.53;;;;;14.50;100932.00;;;;9851454;29;20852;-77
2023/05/01 06:50:57;;;;;;;6.37;5.73;;;;;14.80;100935.00;;;;9817800;29;20903;-76
2023/05/01 06:55:59;;;;;;;9.43;6.80;;;;;15.00;100947.00;;;;9847239;29;21279;-76
2023/05/01 07:01:00;;;;;;;7.50;6.80;;;;;15.20;100942.00;;;;9829596;29;20222;-78
2023/05/01 07:06:02;;;;;;;8.50;6.93;;;;;15.40;100941.00;;;;9830785;29;20206;-77
2023/05/01 07:11:03;;;;;;;9.93;7.13;;;;;15.50;100937.00;;;;9846790;29;20231;-79
2023/05/01 07:16:05;;;;;;;9.50;7.45;;;;;15.60;100943.00;;;;9830895;29;20822;-77
2023/05/01 07:21:10;;;;;;;10.98;8.55;;;;;15.80;100950.00;;;;9841411;29;20402;-76
2023/05/01 07:26:12;;;;;;;10.13;9.20;;;;;15.90;100946.00;;;;9859372;29;20218;-75
2023/05/01 07:31:14;;;;;;;12.98;11.55;;;;;15.90;100948.00;;;;9863264;29;20255;-74
2023/05/01 07:36:17;;;;;;;14.98;12.52;;;;;15.90;100946.00;;;;9848976;29;20278;-75
2023/05/01 07:41:18;;;;;;;16.10;14.40;;;;;16.00;100951.00;;;;9835931;29;20261;-75
2023/05/01 07:46:20;;;;;;;18.45;14.35;;;;;16.10;100943.00;;;;9846525;29;20218;-76
2023/05/01 07:51:22;;;;;;;17.63;15.80;;;;;16.30;100944.00;;;;9840728;29;20269;-75
2023/05/01 07:56:23;;;;;;;19.92;15.77;;;;;16.40;100951.00;;;;9850217;29;20256;-76
2023/05/01 08:01:25;;;;;;;19.73;16.30;;;;;16.40;100960.00;;;;9837345;29;20570;-76
2023/05/01 08:06:27;;;;;;;22.80;18.50;;;;;16.30;100948.00;;;;9849063;29;21027;-76
2023/05/01 08:11:28;;;;;;;23.42;20.80;;;;;16.20;100956.00;;;;9848633;29;21807;-77
2023/05/01 08:16:30;;;;;;;28.13;22.42;;;;;16.20;100955.00;;;;9843815;29;20246;-76
2023/05/01 08:21:31;;;;;;;29.83;23.58;;;;;16.10;100963.00;;;;9849412;29;20229;-76
2023/05/01 08:26:33;;;;;;;29.17;24.27;;;;;16.30;100969.00;;;;9835401;29;20334;-77
2023/05/01 08:31:36;;;;;;;29.23;24.00;;;;;16.50;100972.00;;;;9852235;29;20222;-76
2023/05/01 08:36:38;;;;;;;31.27;24.83;;;;;16.80;100976.00;;;;9850069;29;20324;-75
2023/05/01 08:41:39;;;;;;;33.85;27.48;;;;;17.10;100966.00;;;;9855256;29;20237;-75
2023/05/01 08:46:57;;;;;;;41.55;30.73;;;;;17.40;100970.00;;;;9851771;29;20702;-75
2023/05/01 08:52:01;;;;;;;43.45;29.85;;;;;17.30;100967.00;;;;9829404;29;21677;-76
2023/05/01 08:57:03;;;;;;;41.97;32.13;;;;;17.60;100974.00;;;;9840914;29;20920;-76
2023/05/01 09:02:07;;;;;;;42.78;32.70;;;;;18.10;100990.00;;;;9823250;29;20237;-75
2023/05/01 09:07:09;;;;;;;46.70;33.75;;;;;18.40;100981.00;;;;9841508;29;20279;-76
2023/05/01 09:12:26;;;;;;;46.60;34.53;;;;;18.70;100979.00;;;;9843589;29;20230;-77
2023/05/01 09:17:30;;;;;;;48.83;35.85;;;;;19.00;100982.00;;;;9840759;29;20239;-75
2023/05/01 09:22:33;;;;;;;48.00;36.63;;;;;19.60;100977.00;;;;9841729;29;20284;-76
2023/05/01 09:27:36;;;;;;;49.67;36.40;;;;;20.10;100985.00;;;;9840014;29;21753;-75
2023/05/01 09:32:38;;;;;;;44.50;34.03;;;;;20.20;100980.00;;;;9841657;29;20233;-76
2023/05/01 09:37:48;;;;;;;50.97;37.20;;;;;20.00;100995.00;;;;9845155;29;20243;-75
2023/05/01 09:42:51;;;;;;;47.72;35.53;;;;;19.80;100995.00;;;;9841126;29;20246;-77
2023/05/01 09:48:09;;;;;;;47.67;36.20;;;;;19.30;101010.00;;;;9828403;29;20223;-77
2023/05/01 09:53:12;;;;;;;46.75;34.67;;;;;18.80;100997.00;;;;9829032;29;20375;-76
2023/05/01 09:58:26;;;;;;;47.25;33.50;;;;;18.40;101008.00;;;;9831746;29;21291;-74
2023/05/01 10:03:27;;;;;;;49.85;37.63;;;;;18.20;101016.00;;;;9841001;29;21161;-76
2023/05/01 10:08:49;;;;;;;51.63;37.03;;;;;18.10;101010.00;;;;9825307;29;20222;-75
2023/05/01 10:14:07;;;;;;;50.13;36.35;;;;;18.20;101017.00;;;;9840785;29;20249;-77
2023/05/01 10:19:10;;;;;;;48.83;34.78;;;;;18.20;101023.00;;;;9835376;29;21464;-76
2023/05/01 10:24:11;;;;;;;54.05;36.42;;;;;18.20;101021.00;;;;9835831;29;20218;-75
2023/05/01 10:29:13;;;;;;;49.70;34.33;;;;;18.50;101016.00;;;;9824149;29;20954;-77
2023/05/01 10:34:17;;;;;;;51.63;35.10;;;;;19.00;101017.00;;;;9836898;29;20266;-76
2023/05/01 10:39:32;;;;;;;50.50;34.22;;;;;19.20;101019.00;;;;9818561;29;21125;-76
2023/05/01 10:44:34;;;;;;;40.92;29.50;;;;;19.10;101029.00;;;;9820347;29;20380;-75
2023/05/01 10:50:14;;;;;;;49.25;31.23;;;;;19.30;101030.00;;;;9837495;29;20238;-76
2023/05/01 10:55:36;;;;;;;45.60;32.67;;;;;20.10;101022.00;;;;9768399;29;20317;-76
2023/05/01 11:00:37;;;;;;;44.22;32.53;;;;;20.50;101028.00;;;;9805321;29;20229;-77
2023/05/01 11:06:03;;;;;;;46.95;33.90;;;;;22.30;101019.00;;;;9838761;29;20260;-76
2023/05/01 11:11:20;;;;;;;40.45;31.25;;;;;23.60;101013.00;;;;9821844;29;20229;-76
2023/05/01 11:16:41;;;;;;;42.47;32.90;;;;;23.30;101022.00;;;;9819074;29;20390;-78
2023/05/01 11:21:42;;;;;;;43.28;34.20;;;;;22.90;101015.00;;;;9837229;29;20572;-76
2023/05/01 11:26:43;;;;;;;46.08;31.90;;;;;22.20;101012.00;;;;9830047;29;20231;-75
2023/05/01 11:31:47;;;;;;;47.97;36.70;;;;;21.90;101009.00;;;;9844880;29;20276;-77
2023/05/01 11:36:50;;;;;;;47.70;34.33;;;;;21.80;101012.00;;;;9840904;29;20321;-75
2023/05/01 11:42:05;;;;;;;46.20;32.83;;;;;20.20;101006.00;;;;9854716;29;21337;-76
2023/05/01 11:47:07;;;;;;;35.88;27.08;;;;;19.50;101008.00;;;;9849388;29;20906;-76
2023/05/01 11:52:09;;;;;;;35.60;26.63;;;;;19.70;101009.00;;;;9853426;29;21060;-76
2023/05/01 11:57:11;;;;;;;38.03;28.48;;;;;20.10;101003.00;;;;9853633;29;20243;-76
2023/05/01 12:02:19;;;;;;;36.38;27.92;;;;;20.60;101005.00;;;;9852864;29;20231;-75
2023/05/01 12:07:22;;;;;;;37.03;29.17;;;;;21.00;101007.00;;;;9852867;29;20507;-75
2023/05/01 12:12:23;;;;;;;26.00;20.77;;;;;21.40;101003.00;;;;9836291;29;20226;-75
2023/05/01 12:17:26;;;;;;;18.23;14.55;;;;;22.30;100996.00;;;;9835696;29;20253;-76
2023/05/01 12:22:28;;;;;;;18.40;15.10;;;;;23.60;100997.00;;;;9835829;29;21826;-75
2023/05/01 12:27:31;;;;;;;16.00;13.55;;;;;23.70;101000.00;;;;9835454;29;20846;-76
2023/05/01 12:32:33;;;;;;;13.85;12.50;;;;;23.40;100999.00;;;;9835667;29;20226;-75
2023/05/01 12:37:40;;;;;;;16.42;13.45;;;;;23.40;100993.00;;;;9851387;29;20742;-76
2023/05/01 12:42:42;;;;;;;14.05;12.55;;;;;22.90;100989.00;;;;9849704;29;20261;-76
2023/05/01 12:47:52;;;;;;;16.67;13.10;;;;;22.70;101003.00;;;;9851549;29;20226;-76
2023/05/01 12:52:53;;;;;;;15.07;13.07;;;;;23.30;100982.00;;;;9855147;29;20242;-77
2023/05/01 12:57:55;;;;;;;14.32;12.82;;;;;23.90;100994.00;;;;9835965;29;20250;-76
2023/05/01 13:03:02;;;;;;;13.60;12.15;;;;;24.20;100985.00;;;;9819962;29;20233;-76
2023/05/01 13:08:05;;;;;;;16.38;14.57;;;;;25.30;100973.00;;;;9816822;29;20557;-77
2023/05/01 13:13:06;;;;;;;14.10;11.73;;;;;23.80;100993.00;;;;9832029;29;20219;-78
2023/05/01 13:18:07;;;;;;;14.93;12.85;;;;;23.30;100992.00;;;;9839794;29;20238;-75
2023/05/01 13:23:11;;;;;;;15.27;13.50;;;;;24.20;100999.00;;;;9825113;29;20226;-76
2023/05/01 13:28:19;;;;;;;16.30;14.68;;;;;22.60;100993.00;;;;9824817;29;20218;-76
2023/05/01 13:33:21;;;;;;;17.23;15.38;;;;;21.20;100997.00;;;;9821992;29;20227;-76
2023/05/01 13:38:25;;;;;;;16.45;14.63;;;;;20.60;100999.00;;;;9840762;29;20311;-77
2023/05/01 13:43:27;;;;;;;15.57;13.13;;;;;19.90;101003.00;;;;9824809;29;20219;-77
2023/05/01 13:48:30;;;;;;;19.75;15.50;;;;;19.60;101008.00;;;;9838472;29;20491;-76
2023/05/01 13:53:31;;;;;;;16.23;14.05;;;;;19.40;101011.00;;;;9839616;29;20508;-76
2023/05/01 13:58:33;;;;;;;17.38;15.27;;;;;19.50;101012.00;;;;9841204;29;20263;-76
2023/05/01 14:03:40;;;;;;;18.85;16.00;;;;;20.30;101001.00;;;;9843366;29;21626;-77
2023/05/01 14:08:43;;;;;;;17.15;15.00;;;;;22.10;101020.00;;;;9839234;29;20227;-76
2023/05/01 14:13:47;;;;;;;19.17;15.02;;;;;23.40;101002.00;;;;9838900;29;20256;-78
2023/05/01 14:18:48;;;;;;;16.40;14.07;;;;;22.00;101022.00;;;;9838509;29;20277;-77
2023/05/01 14:23:53;;;;;;;15.32;13.18;;;;;25.00;100993.00;;;;9831684;29;21339;-76
2023/05/01 14:28:55;;;;;;;17.48;15.48;;;;;26.40;100998.00;;;;9822991;29;20219;-76
2023/05/01 14:33:57;;;;;;;13.05;11.63;;;;;27.90;100994.00;;;;9831105;29;20218;-77
2023/05/01 14:39:00;;;;;;;16.08;11.50;;;;;27.10;101010.00;;;;9833682;29;20312;-77
2023/05/01 14:44:14;;;;;;;13.70;11.68;;;;;25.50;101015.00;;;;9833930;29;20660;-75
2023/05/01 14:49:20;;;;;;;17.23;13.18;;;;;21.70;101016.00;;;;9831430;29;20223;-76
2023/05/01 14:54:22;;;;;;;17.65;13.88;;;;;23.80;100996.00;;;;9841656;29;20223;-77
2023/05/01 14:59:25;;;;;;;16.38;14.05;;;;;21.50;101021.00;;;;9831926;29;20247;-76
2023/05/01 15:04:27;;;;;;;15.00;11.57;;;;;21.50;101009.00;;;;9833234;29;20222;-77
2023/05/01 15:09:29;;;;;;;15.05;12.35;;;;;21.50;101018.00;;;;9837150;29;20314;-76
2023/05/01 15:14:30;;;;;;;15.27;12.60;;;;;20.60;101021.00;;;;9820390;29;20269;-76
2023/05/01 15:19:32;;;;;;;16.85;13.70;;;;;19.90;101032.00;;;;9802628;29;20226;-76
2023/05/01 15:24:33;;;;;;;15.32;11.10;;;;;18.90;101041.00;;;;9820357;29;21320;-77
2023/05/01 15:29:34;;;;;;;16.58;12.50;;;;;18.70;101026.00;;;;9835711;29;20226;-76
2023/05/01 15:34:36;;;;;;;16.77;12.52;;;;;18.90;101031.00;;;;9835317;29;20348;-77
2023/05/01 15:39:37;;;;;;;14.98;11.15;;;;;20.10;101026.00;;;;9835872;29;21587;-78
2023/05/01 15:44:38;;;;;;;15.82;10.73;;;;;24.20;101039.00;;;;9836111;29;20226;-77
2023/05/01 15:49:40;;;;;;;19.13;14.60;;;;;21.40;101049.00;;;;9825723;29;20542;-75
2023/05/01 15:54:45;;;;;;;21.83;15.50;;;;;19.80;101059.00;;;;9855976;29;20927;-76
2023/05/01 15:59:50;;;;;;;21.83;15.18;;;;;19.20;101052.00;;;;9841253;29;20230;-76
2023/05/01 16:04:52;;;;;;;18.77;13.68;;;;;18.30;101058.00;;;;9842209;29;20319;-76
2023/05/01 16:09:56;;;;;;;14.85;11.40;;;;;18.20;101058.00;;;;9840377;29;20830;-77
2023/05/01 16:15:01;;;;;;;15.10;10.48;;;;;18.20;101082.00;;;;9839611;29;20263;-76
2023/05/01 16:20:08;;;;;;;17.45;12.60;;;;;18.10;101083.00;;;;9844513;29;20584;-76
2023/05/01 16:25:10;;;;;;;21.35;15.73;;;;;18.10;101069.00;;;;9845420;29;20215;-76
2023/05/01 16:30:15;;;;;;;20.70;15.80;;;;;17.80;101083.00;;;;9839150;29;20222;-76
2023/05/01 16:35:25;;;;;;;22.48;15.18;;;;;17.70;101087.00;;;;9820680;29;20616;-77
2023/05/01 16:40:27;;;;;;;17.80;12.43;;;;;17.50;101102.00;;;;9833172;29;20236;-76
2023/05/01 16:45:30;;;;;;;15.52;11.77;;;;;17.30;101106.00;;;;9830929;29;21752;-76
2023/05/01 16:50:32;;;;;;;10.85;9.35;;;;;17.20;101112.00;;;;9826206;29;21844;-78
2023/05/01 16:55:34;;;;;;;10.30;7.30;;;;;17.10;101107.00;;;;9846445;29;20333;-76
2023/05/01 17:00:35;;;;;;;9.60;6.32;;;;;17.00;101111.00;;;;9818066;29;20826;-76
2023/05/01 17:05:37;;;;;;;8.40;6.07;;;;;16.90;101117.00;;;;9824694;29;20219;-77
2023/05/01 17:10:39;;;;;;;15.43;7.75;;;;;16.80;101110.00;;;;9825846;29;20302;-76
2023/05/01 17:15:40;;;;;;;10.27;6.25;;;;;16.70;101117.00;;;;9842466;29;20250;-77
2023/05/01 17:20:42;;;;;;;7.45;5.63;;;;;16.50;101122.00;;;;9842709;29;21860;-78
2023/05/01 17:25:43;;;;;;;7.22;5.50;;;;;16.50;101123.00;;;;9845125;29;20258;-77
2023/05/01 17:30:44;;;;;;;9.00;6.32;;;;;16.40;101129.00;;;;9844654;29;20537;-75
2023/05/01 17:35:46;;;;;;;11.20;7.88;;;;;16.30;101141.00;;;;9842742;29;20496;-75
2023/05/01 17:40:48;;;;;;;11.27;7.50;;;;;16.20;101145.00;;;;9842533;29;20251;-76
2023/05/01 17:45:49;;;;;;;10.88;7.95;;;;;16.10;101156.00;;;;9840583;29;20215;-76
2023/05/01 17:50:52;;;;;;;10.80;6.63;;;;;16.00;101155.00;;;;9841924;29;20306;-76
2023/05/01 17:55:54;;;;;;;12.43;7.68;;;;;15.90;101159.00;;;;9840285;29;20250;-77
2023/05/01 18:00:56;;;;;;;10.45;7.07;;;;;15.80;101172.00;;;;9812892;29;20349;-76
2023/05/01 18:06:01;;;;;;;10.67;7.03;;;;;15.60;101182.00;;;;9807552;29;22485;-77
2023/05/01 18:11:02;;;;;;;11.07;7.00;;;;;15.50;101179.00;;;;9850590;29;20261;-78
2023/05/01 18:16:04;;;;;;;8.90;5.78;;;;;15.30;101191.00;;;;9838811;29;20239;-77
2023/05/01 18:21:06;;;;;;;10.13;5.50;;;;;15.20;101189.00;;;;9856188;29;20258;-78
2023/05/01 18:26:08;;;;;;;9.17;5.87;;;;;15.10;101209.00;;;;9837510;29;20222;-78
2023/05/01 18:31:14;;;;;;;7.87;5.13;;;;;14.90;101209.00;;;;9844267;29;20226;-77
2023/05/01 18:36:16;;;;;;;10.97;6.00;;;;;14.80;101216.00;;;;9831862;29;20417;-78
2023/05/01 18:41:18;;;;;;;7.60;5.13;;;;;14.60;101224.00;;;;9838002;29;20782;-77
2023/05/01 18:46:19;;;;;;;10.17;5.90;;;;;14.40;101226.00;;;;9842565;29;20322;-77
2023/05/01 18:51:21;;;;;;;12.73;6.13;;;;;14.20;101216.00;;;;9821056;29;20353;-77
2023/05/01 18:56:23;;;;;;;13.17;7.17;;;;;14.00;101228.00;;;;9840727;29;20238;-77
2023/05/01 19:01:25;;;;;;;12.03;6.27;;;;;13.80;101242.00;;;;9824503;29;20219;-77
2023/05/01 19:06:27;;;;;;;13.03;6.23;;;;;13.60;101248.00;;;;9839878;29;21886;-77
2023/05/01 19:11:30;;;;;;;11.90;6.53;;;;;13.50;101248.00;;;;9835005;29;20730;-78
2023/05/01 19:16:32;;;;;;;15.43;6.03;;;;;13.30;101259.00;;;;9819440;29;20605;-78
2023/05/01 19:21:33;;;;;;;14.17;6.50;;;;;13.20;101268.00;;;;9834086;29;20256;-77
2023/05/01 19:26:34;;;;;;;13.40;7.30;;;;;13.00;101279.00;;;;9851942;29;21059;-78
2023/05/01 19:31:37;;;;;;;13.03;7.87;;;;;12.90;101278.00;;;;9832862;29;20298;-77
2023/05/01 19:36:39;;;;;;;12.87;7.53;;;;;12.70;101284.00;;;;9851041;29;20246;-77
2023/05/01 19:41:40;;;;;;;13.10;7.70;;;;;12.60;101299.00;;;;9848083;29;20336;-77
2023/05/01 19:46:42;;;;;;;15.03;8.03;;;;;12.50;101314.00;;;;9849326;29;20211;-77
2023/05/01 19:51:44;;;;;;;12.23;7.77;;;;;12.40;101326.00;;;;9831154;29;21846;-77
2023/05/01 19:56:48;;;;;;;16.17;9.83;;;;;12.30;101334.00;;;;9836329;29;20365;-77
2023/05/01 20:01:50;;;;;;;15.70;10.57;;;;;12.20;101335.00;;;;9837438;29;20215;-77
2023/05/01 20:06:52;;;;;;;20.33;11.53;;;;;12.20;101340.00;;;;9823615;29;20219;-77
2023/05/01 20:11:53;;;;;;;22.90;12.50;;;;;12.10;101352.00;;;;9855106;29;21000;-77
2023/05/01 20:16:54;;;;;;;18.23;12.03;;;;;12.00;101358.00;;;;9851620;29;20234;-77
2023/05/01 20:21:56;;;;;;;25.10;14.43;;;;;11.90;101369.00;;;;9852578;29;20489;-77
2023/05/01 20:27:04;;;;;;;25.00;14.77;;;;;11.80;101373.00;;;;9854646;29;20226;-76
2023/05/01 20:32:06;;;;;;;28.60;15.50;;;;;11.70;101381.00;;;;9851336;29;20229;-77
2023/05/01 20:37:07;;;;;;;24.40;13.90;;;;;11.60;101376.00;;;;9835706;29;20889;-77
2023/05/01 20:42:09;;;;;;;22.40;14.70;;;;;11.50;101388.00;;;;9835893;29;20219;-76
2023/05/01 20:47:12;;;;;;;25.57;15.47;;;;;11.30;101398.00;;;;9851396;29;20226;-75
2023/05/01 20:52:13;;;;;;;27.47;14.17;;;;;11.20;101402.00;;;;9853720;29;20254;-76
2023/05/01 20:57:15;;;;;;;24.70;14.13;;;;;11.10;101399.00;;;;9853253;29;20242;-76
2023/05/01 21:02:16;;;;;;;25.87;15.03;;;;;11.00;101402.00;;;;9851058;29;20218;-76
2023/05/01 21:07:18;;;;;;;25.37;15.67;;;;;11.00;101415.00;;;;9820283;29;20963;-77
2023/05/01 21:12:19;;;;;;;33.83;18.43;;;;;11.00;101435.00;;;;9840051;29;20223;-77
2023/05/01 21:17:21;;;;;;;30.13;17.33;;;;;10.90;101441.00;;;;9855260;29;21969;-75
2023/05/01 21:22:23;;;;;;;29.93;16.57;;;;;10.80;101442.00;;;;9852732;29;20226;-76
2023/05/01 21:27:26;;;;;;;28.37;16.83;;;;;10.70;101448.00;;;;9840893;29;20223;-75
2023/05/01 21:32:33;;;;;;;30.57;16.57;;;;;10.60;101452.00;;;;9840162;29;20227;-75
2023/05/01 21:37:35;;;;;;;31.43;17.60;;;;;10.50;101452.00;;;;9838972;29;20262;-76
2023/05/01 21:42:38;;;;;;;28.53;16.40;;;;;10.40;101448.00;;;;9858894;29;20223;-75
2023/05/01 21:47:48;;;;;;;27.13;17.17;;;;;10.30;101449.00;;;;9858649;29;20937;-76
2023/05/01 21:52:49;;;;;;;33.53;18.33;;;;;10.20;101460.00;;;;9856491;29;20227;-75
2023/05/01 21:57:54;;;;;;;33.57;16.87;;;;;10.10;101458.00;;;;9859611;29;20246;-75
2023/05/01 22:02:56;;;;;;;29.57;16.13;;;;;10.10;101470.00;;;;9856645;29;20681;-76
2023/05/01 22:07:59;;;;;;;33.40;17.80;;;;;10.10;101477.00;;;;9860152;29;21933;-76
2023/05/01 22:13:01;;;;;;;30.77;17.80;;;;;10.00;101491.00;;;;9862624;29;20743;-76
2023/05/01 22:18:02;;;;;;;31.17;17.23;;;;;10.10;101497.00;;;;9842230;29;20266;-76
2023/05/01 22:23:04;;;;;;;36.53;17.90;;;;;10.00;101504.00;;;;9856131;29;20257;-76
2023/05/01 22:28:07;;;;;;;31.00;16.73;;;;;10.00;101516.00;;;;9828566;29;21202;-75
2023/05/01 22:33:08;;;;;;;29.93;16.50;;;;;10.00;101512.00;;;;9858236;29;20358;-76
2023/05/01 22:38:10;;;;;;;30.10;17.10;;;;;9.80;101502.00;;;;9856300;29;20338;-75
2023/05/01 22:43:11;;;;;;;33.00;16.63;;;;;9.70;101507.00;;;;9842443;29;20923;-75
2023/05/01 22:48:13;;;;;;;40.13;17.50;;;;;9.60;101517.00;;;;9858199;29;20350;-75
2023/05/01 22:53:14;;;;;;;35.60;17.93;;;;;9.50;101525.00;;;;9828317;29;20291;-76
2023/05/01 22:58:15;;;;;;;31.07;17.30;;;;;9.40;101540.00;;;;9858814;29;20278;-76
2023/05/01 23:03:17;;;;;;;31.47;17.33;;;;;9.40;101534.00;;;;9842620;29;20298;-75
2023/05/01 23:08:18;;;;;;;31.03;17.63;;;;;9.30;101546.00;;;;9857587;29;20229;-76
2023/05/01 23:13:22;;;;;;;36.63;17.53;;;;;9.30;101554.00;;;;9858963;29;20241;-76
2023/05/01 23:18:31;;;;;;;34.07;17.47;;;;;9.30;101560.00;;;;9844258;29;20247;-76
2023/05/01 23:23:34;;;;;;;34.00;17.77;;;;;9.20;101548.00;;;;9859780;29;21837;-76
2023/05/01 23:28:43;;;;;;;32.50;18.53;;;;;9.10;101556.00;;;;9836402;29;20226;-76
2023/05/01 23:33:44;;;;;;;40.67;20.23;;;;;9.10;101551.00;;;;9850140;29;20226;-76
2023/05/01 23:38:46;;;;;;;43.60;20.70;;;;;9.00;101561.00;;;;9865639;29;21716;-75
2023/05/01 23:43:48;;;;;;;36.70;21.07;;;;;9.00;101566.00;;;;9864930;29;21837;-75
2023/05/01 23:48:50;;;;;;;50.20;24.63;;;;;9.10;101574.00;;;;9850510;29;20222;-76
2023/05/01 23:53:51;;;;;;;45.60;23.23;;;;;9.10;101572.00;;;;9846569;29;20875;-75
2023/05/01 23:58:52;;;;;;;49.10;23.43;;;;;9.20;101580.00;;;;9848444;29;20292;-76
